createdAt,value
2023-10-25T00:02:45.115Z,13.72
2023-10-25T00:05:35.042Z,13.70
2023-10-25T00:08:21.814Z,13.70
2023-10-25T00:11:08.911Z,13.70
2023-10-25T00:13:55.662Z,13.71
2023-10-25T00:16:42.456Z,13.72
2023-10-25T00:19:29.296Z,13.71
2023-10-25T00:22:16.120Z,13.70
2023-10-25T00:25:02.940Z,13.70
2023-10-25T00:27:49.725Z,13.69
2023-10-25T00:30:36.811Z,13.68
2023-10-25T00:33:23.668Z,13.67
2023-10-25T00:36:10.451Z,13.67
2023-10-25T00:38:57.197Z,13.66
2023-10-25T00:41:43.993Z,13.66
2023-10-25T00:44:30.744Z,13.66
2023-10-25T00:47:17.538Z,13.65
2023-10-25T00:50:04.838Z,13.65
2023-10-25T00:52:51.605Z,13.64
2023-10-25T00:55:38.366Z,13.64
2023-10-25T00:58:25.267Z,13.65
2023-10-25T01:01:12.525Z,13.65
2023-10-25T01:03:59.506Z,13.65
2023-10-25T01:06:46.383Z,13.65
2023-10-25T01:09:33.272Z,13.64
2023-10-25T01:12:20.097Z,13.64
2023-10-25T01:15:07.110Z,13.62
2023-10-25T01:17:53.943Z,13.62
2023-10-25T01:20:40.776Z,13.60
2023-10-25T01:23:27.527Z,13.59
2023-10-25T01:26:14.248Z,13.59
2023-10-25T01:29:01.268Z,13.58
2023-10-25T01:31:48.064Z,13.61
2023-10-25T01:34:34.837Z,13.60
2023-10-25T01:37:21.566Z,13.62
2023-10-25T01:40:08.660Z,13.61
2023-10-25T01:42:55.570Z,13.61
2023-10-25T01:45:42.449Z,13.60
2023-10-25T01:48:29.310Z,13.58
2023-10-25T01:51:16.091Z,13.58
2023-10-25T01:54:02.845Z,13.55
2023-10-25T01:56:49.628Z,13.54
2023-10-25T01:59:36.423Z,13.53
2023-10-25T02:02:23.227Z,13.56
2023-10-25T02:05:09.942Z,13.57
2023-10-25T02:07:56.643Z,13.57
2023-10-25T02:10:43.407Z,13.57
2023-10-25T02:13:30.139Z,13.56
2023-10-25T02:16:18.166Z,13.54
2023-10-25T02:19:05.038Z,13.49
2023-10-25T02:21:51.955Z,13.48
2023-10-25T02:24:38.727Z,13.50
2023-10-25T02:27:25.472Z,13.52
2023-10-25T02:30:12.312Z,13.53
2023-10-25T02:32:59.142Z,13.53
2023-10-25T02:35:45.973Z,13.52
2023-10-25T02:38:32.762Z,13.52
2023-10-25T02:41:19.638Z,13.52
2023-10-25T02:44:06.486Z,13.52
2023-10-25T02:46:56.441Z,13.50
2023-10-25T02:49:43.387Z,13.49
2023-10-25T02:52:30.328Z,13.49
2023-10-25T02:55:17.130Z,13.46
2023-10-25T02:58:03.934Z,13.46
2023-10-25T03:00:50.774Z,13.46
2023-10-25T03:03:38.065Z,13.44
2023-10-25T03:06:24.873Z,13.42
2023-10-25T03:09:11.617Z,13.43
2023-10-25T03:11:59.309Z,13.41
2023-10-25T03:14:46.113Z,13.40
2023-10-25T03:17:32.955Z,13.38
2023-10-25T03:20:19.725Z,13.34
2023-10-25T03:23:06.454Z,13.33
2023-10-25T03:25:53.194Z,13.30
2023-10-25T03:28:41.265Z,13.32
2023-10-25T03:31:28.404Z,13.31
2023-10-25T03:34:15.904Z,13.29
2023-10-25T03:37:02.873Z,13.26
2023-10-25T03:39:50.004Z,13.26
2023-10-25T03:42:37.143Z,13.24
2023-10-25T03:45:23.999Z,13.21
2023-10-25T03:48:10.713Z,13.19
2023-10-25T03:50:58.096Z,13.21
2023-10-25T03:53:44.834Z,13.21
2023-10-25T03:56:31.597Z,13.21
2023-10-25T03:59:18.391Z,13.22
2023-10-25T04:02:05.385Z,13.22
2023-10-25T04:04:52.206Z,13.21
2023-10-25T04:07:40.129Z,13.20
2023-10-25T04:10:31.035Z,13.18
2023-10-25T04:13:19.710Z,13.16
2023-10-25T04:16:07.345Z,13.16
2023-10-25T04:18:54.180Z,13.14
2023-10-25T04:21:40.965Z,13.14
2023-10-25T04:24:27.751Z,13.12
2023-10-25T04:27:14.494Z,13.11
2023-10-25T04:30:02.727Z,13.09
2023-10-25T04:32:51.596Z,13.07
2023-10-25T04:35:38.425Z,13.06
2023-10-25T04:38:25.181Z,13.05
2023-10-25T04:41:12.206Z,13.05
2023-10-25T04:43:59.018Z,13.03
2023-10-25T04:46:45.874Z,13.01
2023-10-25T04:49:32.626Z,13.00
2023-10-25T04:52:20.408Z,12.98
2023-10-25T04:55:07.671Z,12.95
2023-10-25T04:57:54.525Z,12.95
2023-10-25T05:00:41.389Z,12.94
2023-10-25T05:03:28.386Z,12.92
2023-10-25T05:06:15.349Z,12.90
2023-10-25T05:09:02.305Z,12.88
2023-10-25T05:11:56.267Z,12.86
2023-10-25T05:14:43.237Z,12.82
2023-10-25T05:17:30.203Z,12.80
2023-10-25T05:20:17.265Z,12.79
2023-10-25T05:23:04.581Z,12.77
2023-10-25T05:25:51.448Z,12.76
2023-10-25T05:28:38.352Z,12.75
2023-10-25T05:31:25.148Z,12.61
2023-10-25T05:34:12.231Z,12.55
2023-10-25T05:36:59.108Z,12.57
2023-10-25T05:39:46.094Z,12.60
2023-10-25T05:42:33.053Z,12.61
2023-10-25T05:45:19.863Z,12.61
2023-10-25T05:48:10.653Z,12.63
2023-10-25T05:50:57.454Z,12.63
2023-10-25T05:53:44.290Z,12.61
2023-10-25T05:56:31.129Z,12.57
2023-10-25T05:59:17.926Z,12.50
2023-10-25T06:02:07.942Z,12.45
2023-10-25T06:04:56.433Z,12.46
2023-10-25T06:07:43.499Z,12.42
2023-10-25T06:10:30.847Z,12.44
2023-10-25T06:13:17.854Z,12.42
2023-10-25T06:16:04.771Z,12.41
2023-10-25T06:18:51.591Z,12.39
2023-10-25T06:21:38.469Z,12.37
2023-10-25T06:24:25.591Z,12.39
2023-10-25T06:27:12.384Z,12.37
2023-10-25T06:29:59.238Z,12.35
2023-10-25T06:32:46.190Z,12.33
2023-10-25T06:35:33.026Z,12.33
2023-10-25T06:38:19.865Z,12.33
2023-10-25T06:41:14.763Z,12.33
2023-10-25T06:44:01.915Z,12.33
2023-10-25T06:46:48.992Z,12.35
2023-10-25T06:49:35.961Z,12.37
2023-10-25T06:52:22.846Z,12.39
2023-10-25T06:55:10.189Z,12.40
2023-10-25T06:57:57.137Z,12.42
2023-10-25T07:00:44.115Z,12.43
2023-10-25T07:03:42.084Z,12.45
2023-10-25T07:06:29.035Z,12.45
2023-10-25T07:09:15.853Z,12.49
2023-10-25T07:12:02.632Z,12.48
2023-10-25T07:14:49.447Z,12.50
2023-10-25T07:17:36.310Z,12.51
2023-10-25T07:20:23.049Z,12.53
2023-10-25T07:23:10.031Z,12.52
2023-10-25T07:25:56.784Z,12.52
2023-10-25T07:28:43.516Z,12.53
2023-10-25T07:31:31.457Z,12.56
2023-10-25T07:34:18.805Z,12.57
2023-10-25T07:37:05.703Z,12.58
2023-10-25T07:39:52.585Z,12.60
2023-10-25T07:42:39.350Z,12.61
2023-10-25T07:45:26.084Z,12.62
2023-10-25T07:48:12.833Z,12.64
2023-10-25T07:51:03.379Z,12.65
2023-10-25T07:53:50.150Z,12.65
2023-10-25T07:57:09.977Z,12.63
2023-10-25T07:59:43.701Z,12.62
2023-10-25T08:02:30.718Z,12.62
2023-10-25T08:05:17.565Z,12.60
2023-10-25T08:08:04.475Z,12.58
2023-10-25T08:10:59.258Z,12.58
2023-10-25T08:13:45.993Z,12.56
2023-10-25T08:16:33.498Z,12.55
2023-10-25T08:19:20.516Z,12.53
2023-10-25T08:22:07.349Z,12.51
2023-10-25T08:24:54.103Z,12.49
2023-10-25T08:27:40.817Z,12.47
2023-10-25T08:30:28.669Z,12.46
2023-10-25T08:33:15.594Z,12.46
2023-10-25T08:36:03.124Z,12.46
2023-10-25T08:38:50.079Z,12.45
2023-10-25T08:41:37.329Z,12.45
2023-10-25T08:44:25.095Z,12.43
2023-10-25T08:47:13.051Z,12.43
2023-10-25T08:49:59.874Z,12.41
2023-10-25T08:52:49.315Z,12.40
2023-10-25T08:55:36.223Z,12.41
2023-10-25T08:58:25.184Z,12.41
2023-10-25T09:01:12.000Z,12.40
2023-10-25T09:03:59.080Z,12.40
2023-10-25T09:06:46.845Z,12.40
2023-10-25T09:09:40.491Z,12.39
2023-10-25T09:12:27.502Z,12.40
2023-10-25T09:15:14.278Z,12.40
2023-10-25T09:18:02.529Z,12.41
2023-10-25T09:21:03.972Z,12.41
2023-10-25T09:23:57.486Z,12.41
2023-10-25T09:26:44.334Z,12.41
2023-10-25T09:29:36.808Z,12.42
2023-10-25T09:32:23.707Z,12.43
2023-10-25T09:35:11.093Z,12.45
2023-10-25T09:37:57.912Z,12.46
2023-10-25T09:40:44.797Z,12.47
2023-10-25T09:43:31.526Z,12.49
2023-10-25T09:46:19.298Z,12.50
2023-10-25T09:49:08.016Z,12.50
2023-10-25T09:52:00.517Z,12.50
2023-10-25T09:54:54.255Z,12.49
2023-10-25T09:57:40.965Z,12.49
2023-10-25T10:00:29.162Z,12.50
2023-10-25T10:03:48.497Z,12.50
2023-10-25T10:06:45.794Z,12.52
2023-10-25T10:09:33.432Z,12.52
2023-10-25T10:12:20.332Z,12.51
2023-10-25T10:15:08.189Z,12.53
2023-10-25T10:17:55.042Z,12.55
2023-10-25T10:20:41.838Z,12.56
2023-10-25T10:23:38.406Z,12.57
2023-10-25T10:26:48.494Z,12.59
2023-10-25T10:29:35.409Z,12.60
2023-10-25T10:32:22.797Z,12.61
2023-10-25T10:35:09.619Z,12.63
2023-10-25T10:37:56.609Z,12.63
2023-10-25T10:40:43.342Z,12.63
2023-10-25T10:43:30.364Z,12.64
2023-10-25T10:46:17.179Z,12.66
2023-10-25T10:49:04.076Z,12.67
2023-10-25T10:51:50.838Z,12.68
2023-10-25T10:54:38.183Z,12.68
2023-10-25T10:57:25.794Z,12.69
2023-10-25T11:00:14.810Z,12.70
2023-10-25T11:03:05.507Z,12.69
2023-10-25T11:05:53.638Z,12.68
2023-10-25T11:08:40.440Z,12.69
2023-10-25T11:11:27.203Z,12.70
2023-10-25T11:14:14.192Z,12.73
2023-10-25T11:17:00.906Z,12.76
2023-10-25T11:19:48.592Z,12.76
2023-10-25T11:22:37.474Z,12.77
2023-10-25T11:25:27.830Z,12.79
2023-10-25T11:28:14.566Z,12.79
2023-10-25T11:31:02.268Z,12.80
2023-10-25T11:33:49.071Z,12.76
2023-10-25T11:36:35.836Z,12.75
2023-10-25T11:39:22.599Z,12.75
2023-10-25T11:42:09.329Z,12.77
2023-10-25T11:44:58.172Z,12.80
2023-10-25T11:47:46.413Z,12.82
2023-10-25T11:50:33.312Z,12.84
2023-10-25T11:53:20.186Z,12.87
2023-10-25T11:56:07.078Z,12.91
2023-10-25T11:58:53.843Z,12.95
2023-10-25T12:01:40.604Z,12.99
2023-10-25T12:04:27.388Z,13.05
2023-10-25T12:07:14.372Z,13.07
2023-10-25T12:10:01.164Z,13.12
2023-10-25T12:12:47.923Z,13.17
2023-10-25T12:15:34.786Z,13.19
2023-10-25T12:18:21.653Z,13.22
2023-10-25T12:21:09.558Z,13.23
2023-10-25T12:23:56.412Z,13.25
2023-10-25T12:26:43.158Z,13.23
2023-10-25T12:29:30.153Z,13.27
2023-10-25T12:32:20.107Z,13.27
2023-10-25T12:35:07.222Z,13.30
2023-10-25T12:37:53.987Z,13.32
2023-10-25T12:40:40.756Z,13.31
2023-10-25T12:43:28.019Z,13.31
2023-10-25T12:46:15.083Z,13.30
2023-10-25T12:49:01.869Z,13.29
2023-10-25T12:51:48.807Z,13.30
2023-10-25T12:54:35.628Z,13.33
2023-10-25T12:57:22.430Z,13.36
2023-10-25T13:00:09.823Z,13.38
2023-10-25T13:02:56.803Z,13.41
2023-10-25T13:05:43.687Z,13.43
2023-10-25T13:08:30.899Z,13.45
2023-10-25T13:11:17.798Z,13.46
2023-10-25T13:14:04.868Z,13.48
2023-10-25T13:16:56.408Z,13.48
2023-10-25T13:19:45.963Z,13.50
2023-10-25T13:22:32.791Z,13.52
2023-10-25T13:25:19.599Z,13.51
2023-10-25T13:28:06.755Z,13.54
2023-10-25T13:30:53.510Z,13.54
2023-10-25T13:33:40.543Z,13.54
2023-10-25T13:36:28.209Z,13.56
2023-10-25T13:39:15.012Z,13.59
2023-10-25T13:42:01.899Z,13.61
2023-10-25T13:44:48.704Z,13.61
2023-10-25T13:47:35.588Z,13.62
2023-10-25T13:50:22.621Z,13.63
2023-10-25T13:53:09.401Z,13.66
2023-10-25T13:55:56.270Z,13.66
2023-10-25T13:58:43.207Z,13.70
2023-10-25T14:01:30.011Z,13.73
2023-10-25T14:04:17.348Z,13.79
2023-10-25T14:07:07.192Z,13.85
2023-10-25T14:09:53.989Z,13.89
2023-10-25T14:12:40.786Z,13.83
2023-10-25T14:15:27.613Z,13.78
2023-10-25T14:18:14.489Z,13.78
2023-10-25T14:21:04.129Z,13.79
2023-10-25T14:23:52.567Z,13.80
2023-10-25T14:26:41.592Z,13.83
2023-10-25T14:29:28.990Z,13.88
2023-10-25T14:32:15.809Z,13.93
2023-10-25T14:35:02.570Z,13.97
2023-10-25T14:37:49.364Z,14.00
2023-10-25T14:40:39.728Z,14.00
2023-10-25T14:43:26.452Z,14.02
2023-10-25T14:46:14.165Z,14.01
2023-10-25T14:49:01.029Z,14.01
2023-10-25T14:51:47.801Z,13.94
2023-10-25T14:54:34.625Z,13.91
2023-10-25T14:57:21.340Z,13.91
2023-10-25T15:00:10.388Z,13.94
2023-10-25T15:02:58.147Z,13.97
2023-10-25T15:05:45.091Z,14.03
2023-10-25T15:08:32.009Z,14.08
2023-10-25T15:11:18.773Z,14.10
2023-10-25T15:14:05.617Z,14.14
2023-10-25T15:16:52.813Z,14.16
2023-10-25T15:19:39.638Z,14.18
2023-10-25T15:22:26.465Z,14.19
2023-10-25T15:25:13.223Z,14.23
2023-10-25T15:28:03.786Z,14.23
2023-10-25T15:30:51.810Z,14.24
2023-10-25T15:33:39.252Z,14.25
2023-10-25T15:36:26.115Z,14.28
2023-10-25T15:39:12.868Z,14.28
2023-10-25T15:41:59.717Z,14.29
2023-10-25T15:44:46.727Z,14.30
2023-10-25T15:47:33.843Z,14.31
2023-10-25T15:50:20.770Z,14.32
2023-10-25T15:53:16.676Z,14.33
2023-10-25T15:56:05.601Z,14.33
2023-10-25T15:58:52.373Z,14.32
2023-10-25T16:04:31.054Z,14.32
2023-10-25T16:07:17.998Z,14.32
2023-10-25T16:10:05.049Z,14.32
2023-10-25T16:12:51.846Z,14.32
2023-10-25T16:15:38.620Z,14.31
2023-10-25T16:18:25.491Z,14.30
2023-10-25T16:21:13.601Z,14.31
2023-10-25T16:24:00.595Z,14.32
2023-10-25T16:26:47.452Z,14.33
2023-10-25T16:29:34.277Z,14.32
2023-10-25T16:32:21.341Z,14.33
2023-10-25T16:35:08.496Z,14.34
2023-10-25T16:37:55.338Z,14.34
2023-10-25T16:40:42.161Z,14.34
2023-10-25T16:43:32.324Z,14.36
2023-10-25T16:46:19.676Z,14.36
2023-10-25T16:49:06.506Z,14.36
2023-10-25T16:51:53.271Z,14.36
2023-10-25T16:54:40.387Z,14.38
2023-10-25T16:57:27.118Z,14.37
2023-10-25T17:00:14.162Z,14.37
2023-10-25T17:03:04.137Z,14.37
2023-10-25T17:05:51.095Z,14.38
2023-10-25T17:08:38.158Z,14.38
2023-10-25T17:11:24.889Z,14.39
2023-10-25T17:14:11.663Z,14.38
2023-10-25T17:16:58.408Z,14.39
2023-10-25T17:19:45.545Z,14.39
2023-10-25T17:22:32.531Z,14.38
2023-10-25T17:25:19.345Z,14.38
2023-10-25T17:28:07.670Z,14.38
2023-10-25T17:30:54.483Z,14.39
2023-10-25T17:33:41.332Z,14.40
2023-10-25T17:36:28.463Z,14.39
2023-10-25T17:39:15.352Z,14.39
2023-10-25T17:42:02.235Z,14.40
2023-10-25T17:44:49.084Z,14.39
2023-10-25T17:47:49.680Z,14.40
2023-10-25T17:50:37.758Z,14.38
2023-10-25T17:53:25.151Z,14.36
2023-10-25T17:56:11.916Z,14.37
2023-10-25T17:58:58.720Z,14.36
2023-10-25T18:01:45.492Z,14.33
2023-10-25T18:04:32.326Z,14.33
2023-10-25T18:07:19.116Z,14.33
2023-10-25T18:10:06.021Z,14.31
2023-10-25T18:12:52.759Z,14.31
2023-10-25T18:15:39.749Z,14.28
2023-10-25T18:18:27.253Z,14.28
2023-10-25T18:21:14.170Z,14.28
2023-10-25T18:24:01.047Z,14.29
2023-10-25T18:26:47.889Z,14.30
2023-10-25T18:29:37.261Z,14.30
2023-10-25T18:32:42.431Z,14.31
2023-10-25T18:35:30.238Z,14.30
2023-10-25T18:38:18.248Z,14.27
2023-10-25T18:41:05.465Z,14.25
2023-10-25T18:43:52.281Z,14.25
2023-10-25T18:46:39.134Z,14.25
2023-10-25T18:49:26.294Z,14.28
2023-10-25T18:52:13.316Z,14.29
2023-10-25T18:55:00.269Z,14.27
2023-10-25T18:57:47.249Z,14.27
2023-10-25T19:00:34.906Z,14.27
2023-10-25T19:03:22.970Z,14.27
2023-10-25T19:06:25.519Z,14.29
2023-10-25T19:09:16.916Z,14.29
2023-10-25T19:12:03.913Z,14.31
2023-10-25T19:14:51.266Z,14.33
2023-10-25T19:17:38.266Z,14.34
2023-10-25T19:20:26.998Z,14.35
2023-10-25T19:23:13.773Z,14.34
2023-10-25T19:26:00.565Z,14.31
2023-10-25T19:28:47.338Z,14.30
2023-10-25T19:31:38.232Z,14.32
2023-10-25T19:34:25.154Z,14.32
2023-10-25T19:37:11.948Z,14.32
2023-10-25T19:39:58.712Z,14.33
2023-10-25T19:42:45.464Z,14.34
2023-10-25T19:45:35.582Z,14.32
2023-10-25T19:48:22.326Z,14.29
2023-10-25T19:51:09.179Z,14.28
2023-10-25T19:53:56.068Z,14.28
2023-10-25T19:56:42.949Z,14.30
2023-10-25T19:59:29.691Z,14.30
2023-10-25T20:02:16.429Z,14.33
2023-10-25T20:05:03.595Z,14.34
2023-10-25T20:07:50.324Z,14.34
2023-10-25T20:10:37.045Z,14.36
2023-10-25T20:13:23.768Z,14.36
2023-10-25T20:16:10.545Z,14.36
2023-10-25T20:18:57.376Z,14.36
2023-10-25T20:21:44.704Z,14.35
2023-10-25T20:24:32.735Z,14.34
2023-10-25T20:27:19.559Z,14.32
2023-10-25T20:30:06.656Z,14.32
2023-10-25T20:32:53.474Z,14.32
2023-10-25T20:35:40.342Z,14.31
2023-10-25T20:38:27.627Z,14.33
2023-10-25T20:41:14.409Z,14.32
2023-10-25T20:44:02.060Z,14.31
2023-10-25T20:46:48.795Z,14.28
2023-10-25T20:49:35.539Z,14.23
2023-10-25T20:52:22.340Z,14.19
2023-10-25T20:55:09.128Z,14.17
2023-10-25T20:57:55.884Z,14.16
2023-10-25T21:00:42.648Z,14.18
2023-10-25T21:03:29.526Z,14.17
2023-10-25T21:06:16.503Z,14.17
2023-10-25T21:09:04.738Z,14.15
2023-10-25T21:11:51.807Z,14.14
2023-10-25T21:14:38.918Z,14.11
2023-10-25T21:17:25.769Z,14.11
2023-10-25T21:20:12.757Z,14.11
2023-10-25T21:22:59.770Z,14.10
2023-10-25T21:25:46.584Z,14.10
2023-10-25T21:28:33.361Z,14.12
2023-10-25T21:31:20.153Z,14.10
2023-10-25T21:34:06.928Z,14.08
2023-10-25T21:36:53.795Z,14.11
2023-10-25T21:39:40.508Z,14.11
2023-10-25T21:42:27.342Z,14.10
2023-10-25T21:45:14.279Z,14.09
2023-10-25T21:48:01.163Z,14.10
2023-10-25T21:50:57.654Z,14.09
2023-10-25T21:53:45.606Z,14.09
2023-10-25T21:56:32.426Z,14.07
2023-10-25T21:59:48.633Z,14.07
2023-10-25T22:02:27.073Z,14.03
2023-10-25T22:05:14.441Z,13.99
2023-10-25T22:08:01.237Z,14.01
2023-10-25T22:10:48.010Z,14.00
2023-10-25T22:13:35.050Z,14.00
2023-10-25T22:16:21.823Z,13.99
2023-10-25T22:19:08.651Z,13.98
2023-10-25T22:21:55.445Z,13.97
2023-10-25T22:24:42.550Z,13.96
2023-10-25T22:27:30.093Z,13.96
2023-10-25T22:30:16.956Z,13.96
2023-10-25T22:33:03.948Z,13.95
2023-10-25T22:35:50.965Z,13.93
2023-10-25T22:38:38.013Z,13.90
2023-10-25T22:41:27.726Z,13.88
2023-10-25T22:44:14.787Z,13.86
2023-10-25T22:47:01.598Z,13.84
2023-10-25T22:49:48.337Z,13.83
2023-10-25T22:52:35.136Z,13.84
2023-10-25T22:55:21.918Z,13.83
2023-10-25T22:58:08.728Z,13.82
2023-10-25T23:00:55.449Z,13.81
2023-10-25T23:03:42.264Z,13.81
2023-10-25T23:06:29.179Z,13.80
2023-10-25T23:09:15.984Z,13.81
2023-10-25T23:12:02.777Z,13.80
2023-10-25T23:14:49.577Z,13.80
2023-10-25T23:17:36.488Z,13.77
2023-10-25T23:20:23.248Z,13.80
2023-10-25T23:23:10.009Z,13.78
2023-10-25T23:25:56.908Z,13.78
2023-10-25T23:28:43.690Z,13.78
2023-10-25T23:31:30.509Z,13.79
2023-10-25T23:34:17.318Z,13.79
2023-10-25T23:37:04.101Z,13.79
2023-10-25T23:39:50.810Z,13.77
2023-10-25T23:42:37.555Z,13.75
2023-10-25T23:45:24.317Z,13.75
2023-10-25T23:48:11.218Z,13.72
2023-10-25T23:50:58.056Z,13.72
2023-10-25T23:53:44.797Z,13.71
2023-10-25T23:56:33.844Z,13.72
2023-10-25T23:59:23.583Z,13.73
